Aviation Digital Data Service (ADDS)

Output produced by METARs form (2254 UTC 19 April 2015)
found at http://www.aviationweather.gov/adds/metars/
 
KDEN 192234Z 1923/2024 01014G22KT P6SM SCT045 BKN070 
     FM200100 34012KT P6SM SCT040 BKN060 
     FM200300 VRB05KT P6SM BKN050 BKN100 
     FM200600 02007KT P6SM VCSH SCT020 OVC030 
     TEMPO 2008/2012 1SM -SHSN OVC015 
     FM201600 14007KT P6SM BKN040 OVC080 
     FM202100 16006KT P6SM SCT050 BKN080